sensor_id;sensor_type;location;lat;lon;timestamp;temperature;humidity
33476;DHT22;19814;48.224;11.422;2024-01-30T00:02:12;0.20;99.90
33476;DHT22;19814;48.224;11.422;2024-01-30T00:04:38;0.20;99.90
33476;DHT22;19814;48.224;11.422;2024-01-30T00:07:03;0.10;99.90
33476;DHT22;19814;48.224;11.422;2024-01-30T00:09:29;0.10;99.90
33476;DHT22;19814;48.224;11.422;2024-01-30T00:11:54;0.00;99.90
33476;DHT22;19814;48.224;11.422;2024-01-30T00:14:20;0.00;99.90
33476;DHT22;19814;48.224;11.422;2024-01-30T00:16:45;0.10;99.90
33476;DHT22;19814;48.224;11.422;2024-01-30T00:19:11;0.10;99.90
33476;DHT22;19814;48.224;11.422;2024-01-30T00:21:37;0.10;99.90
33476;DHT22;19814;48.224;11.422;2024-01-30T00:24:02;0.10;99.90
33476;DHT22;19814;48.224;11.422;2024-01-30T00:26:28;0.10;99.90
33476;DHT22;19814;48.224;11.422;2024-01-30T00:28:53;0.10;99.90
33476;DHT22;19814;48.224;11.422;2024-01-30T00:31:18;0.10;99.90
33476;DHT22;19814;48.224;11.422;2024-01-30T00:33:44;0.10;99.90
33476;DHT22;19814;48.224;11.422;2024-01-30T00:36:09;0.20;99.90
33476;DHT22;19814;48.224;11.422;2024-01-30T00:38:35;0.20;99.90
33476;DHT22;19814;48.224;11.422;2024-01-30T00:41:01;0.20;99.90
33476;DHT22;19814;48.224;11.422;2024-01-30T00:43:30;0.10;99.90
33476;DHT22;19814;48.224;11.422;2024-01-30T00:45:56;0.10;99.90
33476;DHT22;19814;48.224;11.422;2024-01-30T00:48:22;0.00;99.90
33476;DHT22;19814;48.224;11.422;2024-01-30T00:50:47;0.00;99.90
33476;DHT22;19814;48.224;11.422;2024-01-30T00:53:12;-0.10;99.90
33476;DHT22;19814;48.224;11.422;2024-01-30T00:55:38;-0.10;99.90
33476;DHT22;19814;48.224;11.422;2024-01-30T00:58:03;-0.20;99.90
33476;DHT22;19814;48.224;11.422;2024-01-30T01:00:29;-0.30;99.90
33476;DHT22;19814;48.224;11.422;2024-01-30T01:02:56;-0.20;99.90
33476;DHT22;19814;48.224;11.422;2024-01-30T01:05:21;-0.20;99.90
33476;DHT22;19814;48.224;11.422;2024-01-30T01:07:47;-0.20;99.90
33476;DHT22;19814;48.224;11.422;2024-01-30T01:10:18;-0.10;99.90
33476;DHT22;19814;48.224;11.422;2024-01-30T01:12:44;-0.20;99.90
33476;DHT22;19814;48.224;11.422;2024-01-30T01:15:10;-0.20;99.90
33476;DHT22;19814;48.224;11.422;2024-01-30T01:17:35;-0.10;99.90
33476;DHT22;19814;48.224;11.422;2024-01-30T01:20:01;-0.10;99.90
33476;DHT22;19814;48.224;11.422;2024-01-30T01:22:27;-0.10;99.90
33476;DHT22;19814;48.224;11.422;2024-01-30T01:24:52;-0.10;99.90
33476;DHT22;19814;48.224;11.422;2024-01-30T01:27:18;-0.20;99.90
33476;DHT22;19814;48.224;11.422;2024-01-30T01:29:43;-0.10;99.90
33476;DHT22;19814;48.224;11.422;2024-01-30T01:32:09;-0.10;99.90
33476;DHT22;19814;48.224;11.422;2024-01-30T01:34:34;-0.10;99.90
33476;DHT22;19814;48.224;11.422;2024-01-30T01:37:00;-0.10;99.90
33476;DHT22;19814;48.224;11.422;2024-01-30T01:39:25;-0.20;99.90
33476;DHT22;19814;48.224;11.422;2024-01-30T01:41:51;-0.20;99.90
33476;DHT22;19814;48.224;11.422;2024-01-30T01:44:17;-0.30;99.90
33476;DHT22;19814;48.224;11.422;2024-01-30T01:46:42;-0.30;99.90
33476;DHT22;19814;48.224;11.422;2024-01-30T01:49:08;-0.30;99.90
33476;DHT22;19814;48.224;11.422;2024-01-30T01:51:34;-0.40;99.90
33476;DHT22;19814;48.224;11.422;2024-01-30T01:54:04;-0.40;99.90
33476;DHT22;19814;48.224;11.422;2024-01-30T01:56:30;-0.30;99.90
33476;DHT22;19814;48.224;11.422;2024-01-30T01:58:58;-0.30;99.90
33476;DHT22;19814;48.224;11.422;2024-01-30T02:01:24;-0.40;99.90
33476;DHT22;19814;48.224;11.422;2024-01-30T02:03:50;-0.40;99.90
33476;DHT22;19814;48.224;11.422;2024-01-30T02:06:16;-0.30;99.90
33476;DHT22;19814;48.224;11.422;2024-01-30T02:08:41;-0.50;99.90
33476;DHT22;19814;48.224;11.422;2024-01-30T02:11:07;-0.60;99.90
33476;DHT22;19814;48.224;11.422;2024-01-30T02:13:32;-0.50;99.90
33476;DHT22;19814;48.224;11.422;2024-01-30T02:15:58;-0.50;99.90
33476;DHT22;19814;48.224;11.422;2024-01-30T02:18:23;-0.50;99.90
33476;DHT22;19814;48.224;11.422;2024-01-30T02:20:48;-0.50;99.90
33476;DHT22;19814;48.224;11.422;2024-01-30T02:23:15;-0.60;99.90
33476;DHT22;19814;48.224;11.422;2024-01-30T02:25:41;-0.60;99.90
33476;DHT22;19814;48.224;11.422;2024-01-30T02:28:18;-0.60;99.90
33476;DHT22;19814;48.224;11.422;2024-01-30T02:30:44;-0.60;99.90
33476;DHT22;19814;48.224;11.422;2024-01-30T02:33:09;-0.60;99.90
33476;DHT22;19814;48.224;11.422;2024-01-30T02:35:35;-0.60;99.90
33476;DHT22;19814;48.224;11.422;2024-01-30T02:38:01;-0.50;99.90
33476;DHT22;19814;48.224;11.422;2024-01-30T02:40:26;-0.50;99.90
33476;DHT22;19814;48.224;11.422;2024-01-30T02:42:52;-0.50;99.90
33476;DHT22;19814;48.224;11.422;2024-01-30T02:45:17;-0.60;99.90
33476;DHT22;19814;48.224;11.422;2024-01-30T02:47:43;-0.70;99.90
33476;DHT22;19814;48.224;11.422;2024-01-30T02:50:08;-0.70;99.90
33476;DHT22;19814;48.224;11.422;2024-01-30T02:52:34;-0.70;99.90
33476;DHT22;19814;48.224;11.422;2024-01-30T02:54:59;-0.70;99.90
33476;DHT22;19814;48.224;11.422;2024-01-30T02:57:25;-0.70;99.90
33476;DHT22;19814;48.224;11.422;2024-01-30T02:59:50;-0.60;99.90
33476;DHT22;19814;48.224;11.422;2024-01-30T03:02:16;-0.70;99.90
33476;DHT22;19814;48.224;11.422;2024-01-30T03:04:41;-0.70;99.90
33476;DHT22;19814;48.224;11.422;2024-01-30T03:07:07;-0.70;99.90
33476;DHT22;19814;48.224;11.422;2024-01-30T03:09:33;-0.70;99.90
33476;DHT22;19814;48.224;11.422;2024-01-30T03:11:58;-0.70;99.90
33476;DHT22;19814;48.224;11.422;2024-01-30T03:14:24;-0.70;99.90
33476;DHT22;19814;48.224;11.422;2024-01-30T03:16:49;-0.70;99.90
33476;DHT22;19814;48.224;11.422;2024-01-30T03:19:15;-0.70;99.90
33476;DHT22;19814;48.224;11.422;2024-01-30T03:21:40;-0.80;99.90
33476;DHT22;19814;48.224;11.422;2024-01-30T03:24:06;-0.80;99.90
33476;DHT22;19814;48.224;11.422;2024-01-30T03:26:31;-0.80;99.90
33476;DHT22;19814;48.224;11.422;2024-01-30T03:28:57;-0.90;99.90
33476;DHT22;19814;48.224;11.422;2024-01-30T03:31:22;-0.80;99.90
33476;DHT22;19814;48.224;11.422;2024-01-30T03:33:48;-0.80;99.90
33476;DHT22;19814;48.224;11.422;2024-01-30T03:36:15;-0.80;99.90
33476;DHT22;19814;48.224;11.422;2024-01-30T03:38:40;-0.90;99.90
33476;DHT22;19814;48.224;11.422;2024-01-30T03:41:07;-0.90;99.90
33476;DHT22;19814;48.224;11.422;2024-01-30T03:43:33;-0.90;99.90
33476;DHT22;19814;48.224;11.422;2024-01-30T03:45:59;-1.00;99.90
33476;DHT22;19814;48.224;11.422;2024-01-30T03:48:24;-1.00;99.90
33476;DHT22;19814;48.224;11.422;2024-01-30T03:50:51;-1.00;99.90
33476;DHT22;19814;48.224;11.422;2024-01-30T03:53:16;-1.10;99.90
33476;DHT22;19814;48.224;11.422;2024-01-30T03:55:42;-1.10;99.90
33476;DHT22;19814;48.224;11.422;2024-01-30T03:58:07;-1.20;99.90
33476;DHT22;19814;48.224;11.422;2024-01-30T04:00:33;-1.20;99.90
33476;DHT22;19814;48.224;11.422;2024-01-30T04:02:58;-1.20;99.90
33476;DHT22;19814;48.224;11.422;2024-01-30T04:05:24;-1.20;99.90
33476;DHT22;19814;48.224;11.422;2024-01-30T04:07:49;-1.10;99.90
33476;DHT22;19814;48.224;11.422;2024-01-30T04:10:15;-1.10;99.90
33476;DHT22;19814;48.224;11.422;2024-01-30T04:12:40;-1.10;99.90
33476;DHT22;19814;48.224;11.422;2024-01-30T04:15:06;-1.00;99.90
33476;DHT22;19814;48.224;11.422;2024-01-30T04:17:31;-1.00;99.90
33476;DHT22;19814;48.224;11.422;2024-01-30T04:19:57;-1.10;99.90
33476;DHT22;19814;48.224;11.422;2024-01-30T04:22:23;-1.10;99.90
33476;DHT22;19814;48.224;11.422;2024-01-30T04:24:48;-1.10;99.90
33476;DHT22;19814;48.224;11.422;2024-01-30T04:27:14;-1.00;99.90
33476;DHT22;19814;48.224;11.422;2024-01-30T04:29:39;-1.00;99.90
33476;DHT22;19814;48.224;11.422;2024-01-30T04:32:05;-1.10;99.90
33476;DHT22;19814;48.224;11.422;2024-01-30T04:34:30;-1.10;99.90
33476;DHT22;19814;48.224;11.422;2024-01-30T04:36:56;-1.20;99.90
33476;DHT22;19814;48.224;11.422;2024-01-30T04:39:22;-1.10;99.90
33476;DHT22;19814;48.224;11.422;2024-01-30T04:41:47;-1.00;99.90
33476;DHT22;19814;48.224;11.422;2024-01-30T04:44:13;-1.10;99.90
33476;DHT22;19814;48.224;11.422;2024-01-30T04:46:39;-1.20;99.90
33476;DHT22;19814;48.224;11.422;2024-01-30T04:49:04;-1.10;99.90
33476;DHT22;19814;48.224;11.422;2024-01-30T04:51:30;-1.10;99.90
33476;DHT22;19814;48.224;11.422;2024-01-30T04:53:55;-1.00;99.90
33476;DHT22;19814;48.224;11.422;2024-01-30T04:56:21;-1.10;99.90
33476;DHT22;19814;48.224;11.422;2024-01-30T04:58:46;-1.20;99.90
33476;DHT22;19814;48.224;11.422;2024-01-30T05:01:15;-1.20;99.90
33476;DHT22;19814;48.224;11.422;2024-01-30T05:03:41;-1.30;99.90
33476;DHT22;19814;48.224;11.422;2024-01-30T05:06:07;-1.30;99.90
33476;DHT22;19814;48.224;11.422;2024-01-30T05:08:32;-1.30;99.90
33476;DHT22;19814;48.224;11.422;2024-01-30T05:11:00;-1.40;99.90
33476;DHT22;19814;48.224;11.422;2024-01-30T05:13:25;-1.40;99.90
33476;DHT22;19814;48.224;11.422;2024-01-30T05:15:51;-1.40;99.90
33476;DHT22;19814;48.224;11.422;2024-01-30T05:18:16;-1.40;99.90
33476;DHT22;19814;48.224;11.422;2024-01-30T05:20:41;-1.40;99.90
33476;DHT22;19814;48.224;11.422;2024-01-30T05:23:07;-1.30;99.90
33476;DHT22;19814;48.224;11.422;2024-01-30T05:25:33;-1.30;99.90
33476;DHT22;19814;48.224;11.422;2024-01-30T05:27:58;-1.30;99.90
33476;DHT22;19814;48.224;11.422;2024-01-30T05:30:24;-1.30;99.90
33476;DHT22;19814;48.224;11.422;2024-01-30T05:32:49;-1.30;99.90
33476;DHT22;19814;48.224;11.422;2024-01-30T05:35:15;-1.20;99.90
33476;DHT22;19814;48.224;11.422;2024-01-30T05:37:40;-1.20;99.90
33476;DHT22;19814;48.224;11.422;2024-01-30T05:40:06;-1.20;99.90
33476;DHT22;19814;48.224;11.422;2024-01-30T05:42:31;-1.20;99.90
33476;DHT22;19814;48.224;11.422;2024-01-30T05:44:57;-1.20;99.90
33476;DHT22;19814;48.224;11.422;2024-01-30T05:47:22;-1.20;99.90
33476;DHT22;19814;48.224;11.422;2024-01-30T05:49:48;-1.10;99.90
33476;DHT22;19814;48.224;11.422;2024-01-30T05:52:13;-1.10;99.90
33476;DHT22;19814;48.224;11.422;2024-01-30T05:54:40;-1.10;99.90
33476;DHT22;19814;48.224;11.422;2024-01-30T05:57:06;-1.10;99.90
33476;DHT22;19814;48.224;11.422;2024-01-30T05:59:31;-1.10;99.90
33476;DHT22;19814;48.224;11.422;2024-01-30T06:01:57;-1.10;99.90
33476;DHT22;19814;48.224;11.422;2024-01-30T06:04:23;-1.00;99.90
33476;DHT22;19814;48.224;11.422;2024-01-30T06:06:48;-1.10;99.90
33476;DHT22;19814;48.224;11.422;2024-01-30T06:09:14;-1.10;99.90
33476;DHT22;19814;48.224;11.422;2024-01-30T06:11:39;-1.00;99.90
33476;DHT22;19814;48.224;11.422;2024-01-30T06:14:05;-0.90;99.90
33476;DHT22;19814;48.224;11.422;2024-01-30T06:16:30;-0.90;99.90
33476;DHT22;19814;48.224;11.422;2024-01-30T06:18:56;-0.90;99.90
33476;DHT22;19814;48.224;11.422;2024-01-30T06:21:21;-0.90;99.90
33476;DHT22;19814;48.224;11.422;2024-01-30T06:23:47;-0.90;99.90
33476;DHT22;19814;48.224;11.422;2024-01-30T06:26:12;-0.90;99.90
33476;DHT22;19814;48.224;11.422;2024-01-30T06:28:38;-0.90;99.90
33476;DHT22;19814;48.224;11.422;2024-01-30T06:31:03;-0.90;99.90
33476;DHT22;19814;48.224;11.422;2024-01-30T06:33:28;-0.90;99.90
33476;DHT22;19814;48.224;11.422;2024-01-30T06:35:54;-1.00;99.90
33476;DHT22;19814;48.224;11.422;2024-01-30T06:38:19;-1.10;99.90
33476;DHT22;19814;48.224;11.422;2024-01-30T06:40:45;-1.10;99.90
33476;DHT22;19814;48.224;11.422;2024-01-30T06:43:10;-1.10;99.90
33476;DHT22;19814;48.224;11.422;2024-01-30T06:45:36;-1.10;99.90
33476;DHT22;19814;48.224;11.422;2024-01-30T06:48:02;-1.00;99.90
33476;DHT22;19814;48.224;11.422;2024-01-30T06:50:28;-1.00;99.90
33476;DHT22;19814;48.224;11.422;2024-01-30T06:52:53;-0.90;99.90
33476;DHT22;19814;48.224;11.422;2024-01-30T06:55:19;-0.90;99.90
33476;DHT22;19814;48.224;11.422;2024-01-30T06:57:44;-1.00;99.90
33476;DHT22;19814;48.224;11.422;2024-01-30T07:00:10;-1.00;99.90
33476;DHT22;19814;48.224;11.422;2024-01-30T07:02:36;-1.00;99.90
33476;DHT22;19814;48.224;11.422;2024-01-30T07:05:02;-1.00;99.90
33476;DHT22;19814;48.224;11.422;2024-01-30T07:07:27;-0.90;99.90
33476;DHT22;19814;48.224;11.422;2024-01-30T07:09:54;-0.80;99.90
33476;DHT22;19814;48.224;11.422;2024-01-30T07:12:22;-0.60;99.90
33476;DHT22;19814;48.224;11.422;2024-01-30T07:14:47;-0.40;99.90
33476;DHT22;19814;48.224;11.422;2024-01-30T07:17:13;-0.20;99.90
33476;DHT22;19814;48.224;11.422;2024-01-30T07:19:39;0.10;99.90
33476;DHT22;19814;48.224;11.422;2024-01-30T07:22:04;0.60;99.90
33476;DHT22;19814;48.224;11.422;2024-01-30T07:24:30;1.30;99.90
33476;DHT22;19814;48.224;11.422;2024-01-30T07:26:55;1.30;99.90
33476;DHT22;19814;48.224;11.422;2024-01-30T07:29:21;1.30;99.90
33476;DHT22;19814;48.224;11.422;2024-01-30T07:31:47;1.50;99.90
33476;DHT22;19814;48.224;11.422;2024-01-30T07:34:13;2.10;99.90
33476;DHT22;19814;48.224;11.422;2024-01-30T07:36:38;2.70;99.90
33476;DHT22;19814;48.224;11.422;2024-01-30T07:39:03;3.30;99.90
33476;DHT22;19814;48.224;11.422;2024-01-30T07:41:29;4.20;99.90
33476;DHT22;19814;48.224;11.422;2024-01-30T07:43:54;5.20;99.90
33476;DHT22;19814;48.224;11.422;2024-01-30T07:46:20;5.90;99.00
33476;DHT22;19814;48.224;11.422;2024-01-30T07:48:45;6.00;98.30
33476;DHT22;19814;48.224;11.422;2024-01-30T07:51:11;6.30;98.40
33476;DHT22;19814;48.224;11.422;2024-01-30T07:53:36;6.90;98.30
33476;DHT22;19814;48.224;11.422;2024-01-30T07:56:02;7.20;96.70
33476;DHT22;19814;48.224;11.422;2024-01-30T07:58:27;7.10;96.20
33476;DHT22;19814;48.224;11.422;2024-01-30T08:00:53;7.30;95.00
33476;DHT22;19814;48.224;11.422;2024-01-30T08:03:19;7.40;96.20
33476;DHT22;19814;48.224;11.422;2024-01-30T08:05:44;7.70;97.00
33476;DHT22;19814;48.224;11.422;2024-01-30T08:08:09;8.00;95.80
33476;DHT22;19814;48.224;11.422;2024-01-30T08:10:35;8.40;95.50
33476;DHT22;19814;48.224;11.422;2024-01-30T08:13:01;9.10;92.80
33476;DHT22;19814;48.224;11.422;2024-01-30T08:15:27;9.60;92.10
33476;DHT22;19814;48.224;11.422;2024-01-30T08:17:52;9.90;91.30
33476;DHT22;19814;48.224;11.422;2024-01-30T08:20:26;10.40;90.40
33476;DHT22;19814;48.224;11.422;2024-01-30T08:22:51;10.20;90.20
33476;DHT22;19814;48.224;11.422;2024-01-30T08:25:17;10.20;90.20
33476;DHT22;19814;48.224;11.422;2024-01-30T08:27:42;10.30;90.10
33476;DHT22;19814;48.224;11.422;2024-01-30T08:30:08;10.40;90.30
33476;DHT22;19814;48.224;11.422;2024-01-30T08:32:34;10.20;90.00
33476;DHT22;19814;48.224;11.422;2024-01-30T08:34:59;10.40;89.80
33476;DHT22;19814;48.224;11.422;2024-01-30T08:37:25;10.50;90.50
33476;DHT22;19814;48.224;11.422;2024-01-30T08:39:50;10.90;88.50
33476;DHT22;19814;48.224;11.422;2024-01-30T08:42:16;11.40;85.50
33476;DHT22;19814;48.224;11.422;2024-01-30T08:44:43;11.70;84.10
33476;DHT22;19814;48.224;11.422;2024-01-30T08:47:09;12.20;82.80
33476;DHT22;19814;48.224;11.422;2024-01-30T08:49:34;12.30;82.40
33476;DHT22;19814;48.224;11.422;2024-01-30T08:52:00;12.40;83.30
33476;DHT22;19814;48.224;11.422;2024-01-30T08:54:25;12.50;82.90
33476;DHT22;19814;48.224;11.422;2024-01-30T08:56:51;12.80;81.90
33476;DHT22;19814;48.224;11.422;2024-01-30T08:59:18;13.40;79.90
33476;DHT22;19814;48.224;11.422;2024-01-30T09:01:44;14.00;78.00
33476;DHT22;19814;48.224;11.422;2024-01-30T09:04:09;14.50;74.30
33476;DHT22;19814;48.224;11.422;2024-01-30T09:06:35;14.60;73.90
33476;DHT22;19814;48.224;11.422;2024-01-30T09:09:00;14.50;69.50
33476;DHT22;19814;48.224;11.422;2024-01-30T09:11:26;14.10;68.80
33476;DHT22;19814;48.224;11.422;2024-01-30T09:13:51;13.80;70.20
33476;DHT22;19814;48.224;11.422;2024-01-30T09:16:17;13.60;70.50
33476;DHT22;19814;48.224;11.422;2024-01-30T09:18:42;13.40;71.90
33476;DHT22;19814;48.224;11.422;2024-01-30T09:21:08;13.40;72.20
33476;DHT22;19814;48.224;11.422;2024-01-30T09:23:33;13.40;73.30
33476;DHT22;19814;48.224;11.422;2024-01-30T09:25:59;13.70;72.20
33476;DHT22;19814;48.224;11.422;2024-01-30T09:28:24;14.30;71.90
33476;DHT22;19814;48.224;11.422;2024-01-30T09:30:50;14.70;70.70
33476;DHT22;19814;48.224;11.422;2024-01-30T09:33:15;14.50;70.50
33476;DHT22;19814;48.224;11.422;2024-01-30T09:35:41;14.60;70.90
33476;DHT22;19814;48.224;11.422;2024-01-30T09:38:07;14.40;71.40
33476;DHT22;19814;48.224;11.422;2024-01-30T09:40:32;14.30;71.70
33476;DHT22;19814;48.224;11.422;2024-01-30T09:42:58;14.80;73.40
33476;DHT22;19814;48.224;11.422;2024-01-30T09:45:25;15.40;71.30
33476;DHT22;19814;48.224;11.422;2024-01-30T09:47:51;15.50;69.50
33476;DHT22;19814;48.224;11.422;2024-01-30T09:50:16;15.40;71.50
33476;DHT22;19814;48.224;11.422;2024-01-30T09:52:42;15.90;70.90
33476;DHT22;19814;48.224;11.422;2024-01-30T09:55:08;16.80;69.00
33476;DHT22;19814;48.224;11.422;2024-01-30T09:57:34;17.30;68.50
33476;DHT22;19814;48.224;11.422;2024-01-30T10:00:00;17.70;66.70
33476;DHT22;19814;48.224;11.422;2024-01-30T10:02:25;18.10;63.90
33476;DHT22;19814;48.224;11.422;2024-01-30T10:04:51;17.50;64.00
33476;DHT22;19814;48.224;11.422;2024-01-30T10:07:17;17.10;65.00
33476;DHT22;19814;48.224;11.422;2024-01-30T10:09:43;16.80;66.90
33476;DHT22;19814;48.224;11.422;2024-01-30T10:12:09;17.30;69.20
33476;DHT22;19814;48.224;11.422;2024-01-30T10:14:37;19.20;65.70
33476;DHT22;19814;48.224;11.422;2024-01-30T10:17:03;20.10;62.40
33476;DHT22;19814;48.224;11.422;2024-01-30T10:19:29;19.60;60.50
33476;DHT22;19814;48.224;11.422;2024-01-30T10:21:54;19.20;59.20
33476;DHT22;19814;48.224;11.422;2024-01-30T10:24:23;19.10;59.40
33476;DHT22;19814;48.224;11.422;2024-01-30T10:26:49;19.30;59.30
33476;DHT22;19814;48.224;11.422;2024-01-30T10:29:14;20.20;57.80
33476;DHT22;19814;48.224;11.422;2024-01-30T10:31:40;19.70;57.80
33476;DHT22;19814;48.224;11.422;2024-01-30T10:34:05;19.50;56.80
33476;DHT22;19814;48.224;11.422;2024-01-30T10:36:30;19.30;58.10
33476;DHT22;19814;48.224;11.422;2024-01-30T10:38:59;20.10;56.50
33476;DHT22;19814;48.224;11.422;2024-01-30T10:41:27;20.30;56.30
33476;DHT22;19814;48.224;11.422;2024-01-30T10:44:01;20.40;55.20
33476;DHT22;19814;48.224;11.422;2024-01-30T10:46:28;20.50;53.50
33476;DHT22;19814;48.224;11.422;2024-01-30T10:48:57;21.00;53.10
33476;DHT22;19814;48.224;11.422;2024-01-30T10:51:24;20.90;54.10
33476;DHT22;19814;48.224;11.422;2024-01-30T10:53:51;20.80;53.60
33476;DHT22;19814;48.224;11.422;2024-01-30T10:56:17;20.60;53.40
33476;DHT22;19814;48.224;11.422;2024-01-30T10:58:43;21.00;51.10
33476;DHT22;19814;48.224;11.422;2024-01-30T11:01:08;20.60;51.40
33476;DHT22;19814;48.224;11.422;2024-01-30T11:03:34;20.00;52.30
33476;DHT22;19814;48.224;11.422;2024-01-30T11:06:02;20.20;50.20
33476;DHT22;19814;48.224;11.422;2024-01-30T11:08:27;18.80;52.70
33476;DHT22;19814;48.224;11.422;2024-01-30T11:10:56;18.40;53.20
33476;DHT22;19814;48.224;11.422;2024-01-30T11:13:28;18.60;53.20
33476;DHT22;19814;48.224;11.422;2024-01-30T11:15:54;19.30;51.80
33476;DHT22;19814;48.224;11.422;2024-01-30T11:18:25;19.70;51.80
33476;DHT22;19814;48.224;11.422;2024-01-30T11:20:51;19.40;51.00
33476;DHT22;19814;48.224;11.422;2024-01-30T11:23:17;19.00;51.50
33476;DHT22;19814;48.224;11.422;2024-01-30T11:25:43;19.10;52.60
33476;DHT22;19814;48.224;11.422;2024-01-30T11:28:12;19.70;52.20
33476;DHT22;19814;48.224;11.422;2024-01-30T11:30:38;21.10;49.30
33476;DHT22;19814;48.224;11.422;2024-01-30T11:33:05;21.80;48.90
33476;DHT22;19814;48.224;11.422;2024-01-30T11:35:31;22.70;47.10
33476;DHT22;19814;48.224;11.422;2024-01-30T11:37:57;24.00;45.00
33476;DHT22;19814;48.224;11.422;2024-01-30T11:40:23;23.90;44.00
33476;DHT22;19814;48.224;11.422;2024-01-30T11:42:51;24.70;42.00
33476;DHT22;19814;48.224;11.422;2024-01-30T11:45:17;24.90;42.40
33476;DHT22;19814;48.224;11.422;2024-01-30T11:47:42;24.50;42.00
33476;DHT22;19814;48.224;11.422;2024-01-30T11:50:08;24.20;42.80
33476;DHT22;19814;48.224;11.422;2024-01-30T11:52:36;23.50;43.80
33476;DHT22;19814;48.224;11.422;2024-01-30T11:55:02;24.80;44.30
33476;DHT22;19814;48.224;11.422;2024-01-30T11:57:28;25.70;43.30
33476;DHT22;19814;48.224;11.422;2024-01-30T11:59:53;26.70;43.00
33476;DHT22;19814;48.224;11.422;2024-01-30T12:02:18;27.90;42.50
33476;DHT22;19814;48.224;11.422;2024-01-30T12:04:44;28.30;42.00
33476;DHT22;19814;48.224;11.422;2024-01-30T12:07:10;28.50;42.40
33476;DHT22;19814;48.224;11.422;2024-01-30T12:09:35;28.10;40.00
33476;DHT22;19814;48.224;11.422;2024-01-30T12:12:01;26.60;41.90
33476;DHT22;19814;48.224;11.422;2024-01-30T12:14:26;25.20;42.60
33476;DHT22;19814;48.224;11.422;2024-01-30T12:16:52;23.40;45.20
33476;DHT22;19814;48.224;11.422;2024-01-30T12:19:21;21.90;46.80
33476;DHT22;19814;48.224;11.422;2024-01-30T12:21:46;21.30;47.10
33476;DHT22;19814;48.224;11.422;2024-01-30T12:24:12;20.40;48.70
33476;DHT22;19814;48.224;11.422;2024-01-30T12:26:37;20.00;48.60
33476;DHT22;19814;48.224;11.422;2024-01-30T12:29:03;19.80;48.70
33476;DHT22;19814;48.224;11.422;2024-01-30T12:31:31;19.50;49.90
33476;DHT22;19814;48.224;11.422;2024-01-30T12:33:59;19.30;49.90
33476;DHT22;19814;48.224;11.422;2024-01-30T12:36:24;19.40;50.80
33476;DHT22;19814;48.224;11.422;2024-01-30T12:38:49;19.90;50.20
33476;DHT22;19814;48.224;11.422;2024-01-30T12:41:15;20.60;49.00
33476;DHT22;19814;48.224;11.422;2024-01-30T12:43:41;21.50;47.90
33476;DHT22;19814;48.224;11.422;2024-01-30T12:46:06;22.60;47.60
33476;DHT22;19814;48.224;11.422;2024-01-30T12:48:32;23.40;45.90
33476;DHT22;19814;48.224;11.422;2024-01-30T12:50:57;23.80;44.40
33476;DHT22;19814;48.224;11.422;2024-01-30T12:53:23;23.70;45.20
33476;DHT22;19814;48.224;11.422;2024-01-30T12:55:48;23.40;46.30
33476;DHT22;19814;48.224;11.422;2024-01-30T12:58:15;23.10;46.60
33476;DHT22;19814;48.224;11.422;2024-01-30T13:00:41;22.70;47.10
33476;DHT22;19814;48.224;11.422;2024-01-30T13:03:08;22.20;47.30
33476;DHT22;19814;48.224;11.422;2024-01-30T13:05:33;21.40;48.80
33476;DHT22;19814;48.224;11.422;2024-01-30T13:07:59;21.00;49.20
33476;DHT22;19814;48.224;11.422;2024-01-30T13:13:09;19.60;51.20
33476;DHT22;19814;48.224;11.422;2024-01-30T13:15:34;19.30;50.80
33476;DHT22;19814;48.224;11.422;2024-01-30T13:18:00;19.20;51.50
33476;DHT22;19814;48.224;11.422;2024-01-30T13:20:25;18.60;53.60
33476;DHT22;19814;48.224;11.422;2024-01-30T13:22:52;18.10;55.10
33476;DHT22;19814;48.224;11.422;2024-01-30T13:25:26;17.90;55.10
33476;DHT22;19814;48.224;11.422;2024-01-30T13:27:52;17.60;55.60
33476;DHT22;19814;48.224;11.422;2024-01-30T13:30:17;17.40;56.40
33476;DHT22;19814;48.224;11.422;2024-01-30T13:32:43;17.30;56.70
33476;DHT22;19814;48.224;11.422;2024-01-30T13:35:09;16.90;58.40
33476;DHT22;19814;48.224;11.422;2024-01-30T13:37:35;16.60;59.80
33476;DHT22;19814;48.224;11.422;2024-01-30T13:40:01;16.50;59.60
33476;DHT22;19814;48.224;11.422;2024-01-30T13:42:26;16.30;61.70
33476;DHT22;19814;48.224;11.422;2024-01-30T13:44:52;16.30;61.90
33476;DHT22;19814;48.224;11.422;2024-01-30T13:47:18;16.30;62.10
33476;DHT22;19814;48.224;11.422;2024-01-30T13:49:46;16.40;63.00
33476;DHT22;19814;48.224;11.422;2024-01-30T13:52:12;16.20;63.80
33476;DHT22;19814;48.224;11.422;2024-01-30T13:54:38;16.20;64.70
33476;DHT22;19814;48.224;11.422;2024-01-30T13:57:03;16.10;65.70
33476;DHT22;19814;48.224;11.422;2024-01-30T13:59:29;15.80;67.20
33476;DHT22;19814;48.224;11.422;2024-01-30T14:01:54;15.70;67.80
33476;DHT22;19814;48.224;11.422;2024-01-30T14:04:19;15.60;67.10
33476;DHT22;19814;48.224;11.422;2024-01-30T14:06:45;15.50;66.80
33476;DHT22;19814;48.224;11.422;2024-01-30T14:09:10;15.40;67.00
33476;DHT22;19814;48.224;11.422;2024-01-30T14:11:36;15.50;66.70
33476;DHT22;19814;48.224;11.422;2024-01-30T14:14:01;15.30;65.40
33476;DHT22;19814;48.224;11.422;2024-01-30T14:16:27;15.20;64.80
33476;DHT22;19814;48.224;11.422;2024-01-30T14:18:54;15.10;66.80
33476;DHT22;19814;48.224;11.422;2024-01-30T14:21:19;14.90;69.10
33476;DHT22;19814;48.224;11.422;2024-01-30T14:23:45;14.50;69.80
33476;DHT22;19814;48.224;11.422;2024-01-30T14:26:10;14.30;70.50
33476;DHT22;19814;48.224;11.422;2024-01-30T14:28:36;14.20;72.50
33476;DHT22;19814;48.224;11.422;2024-01-30T14:31:01;13.90;73.30
33476;DHT22;19814;48.224;11.422;2024-01-30T14:33:26;13.70;74.70
33476;DHT22;19814;48.224;11.422;2024-01-30T14:35:52;13.50;75.40
33476;DHT22;19814;48.224;11.422;2024-01-30T14:38:17;13.40;73.60
33476;DHT22;19814;48.224;11.422;2024-01-30T14:40:44;13.30;76.10
33476;DHT22;19814;48.224;11.422;2024-01-30T14:43:09;13.10;75.60
33476;DHT22;19814;48.224;11.422;2024-01-30T14:45:35;13.00;76.10
33476;DHT22;19814;48.224;11.422;2024-01-30T14:48:00;12.90;76.70
33476;DHT22;19814;48.224;11.422;2024-01-30T14:50:26;12.90;75.00
33476;DHT22;19814;48.224;11.422;2024-01-30T14:52:53;12.90;73.80
33476;DHT22;19814;48.224;11.422;2024-01-30T14:55:19;13.00;73.50
33476;DHT22;19814;48.224;11.422;2024-01-30T14:57:44;13.00;72.20
33476;DHT22;19814;48.224;11.422;2024-01-30T15:00:11;12.90;72.70
33476;DHT22;19814;48.224;11.422;2024-01-30T15:02:37;12.80;73.20
33476;DHT22;19814;48.224;11.422;2024-01-30T15:05:02;12.80;73.90
33476;DHT22;19814;48.224;11.422;2024-01-30T15:07:28;12.80;73.60
33476;DHT22;19814;48.224;11.422;2024-01-30T15:09:54;12.70;74.90
33476;DHT22;19814;48.224;11.422;2024-01-30T15:12:19;12.60;75.10